sensor_id;sensor_type;location;lat;lon;timestamp;P1;durP1;ratioP1;P2;durP2;ratioP2
803;SDS011;25687;49.976;8.240;2022-11-03T00:02:19;10.97;;;4.90;;
803;SDS011;25687;49.976;8.240;2022-11-03T00:04:44;12.30;;;5.73;;
803;SDS011;25687;49.976;8.240;2022-11-03T00:07:10;14.70;;;5.87;;
803;SDS011;25687;49.976;8.240;2022-11-03T00:09:35;15.67;;;5.37;;
803;SDS011;25687;49.976;8.240;2022-11-03T00:12:00;11.60;;;5.70;;
803;SDS011;25687;49.976;8.240;2022-11-03T00:14:26;13.67;;;5.80;;
803;SDS011;25687;49.976;8.240;2022-11-03T00:16:51;12.93;;;5.33;;
803;SDS011;25687;49.976;8.240;2022-11-03T00:19:17;16.20;;;5.50;;
803;SDS011;25687;49.976;8.240;2022-11-03T00:21:42;11.57;;;5.60;;
803;SDS011;25687;49.976;8.240;2022-11-03T00:24:08;14.53;;;5.60;;
803;SDS011;25687;49.976;8.240;2022-11-03T00:26:34;16.10;;;5.97;;
803;SDS011;25687;49.976;8.240;2022-11-03T00:29:01;15.13;;;5.83;;
803;SDS011;25687;49.976;8.240;2022-11-03T00:31:31;11.90;;;5.33;;
803;SDS011;25687;49.976;8.240;2022-11-03T00:33:59;17.33;;;5.60;;
803;SDS011;25687;49.976;8.240;2022-11-03T00:36:29;13.67;;;5.60;;
803;SDS011;25687;49.976;8.240;2022-11-03T00:38:56;11.47;;;5.37;;
803;SDS011;25687;49.976;8.240;2022-11-03T00:41:22;13.00;;;5.63;;
803;SDS011;25687;49.976;8.240;2022-11-03T00:43:49;10.57;;;4.83;;
803;SDS011;25687;49.976;8.240;2022-11-03T00:46:15;10.87;;;4.70;;
803;SDS011;25687;49.976;8.240;2022-11-03T00:48:42;13.77;;;5.77;;
803;SDS011;25687;49.976;8.240;2022-11-03T00:51:23;11.40;;;6.57;;
803;SDS011;25687;49.976;8.240;2022-11-03T00:56:17;10.73;;;5.47;;
803;SDS011;25687;49.976;8.240;2022-11-03T00:58:47;9.37;;;5.90;;
803;SDS011;25687;49.976;8.240;2022-11-03T01:01:14;14.27;;;5.77;;
803;SDS011;25687;49.976;8.240;2022-11-03T01:03:42;13.93;;;7.10;;
803;SDS011;25687;49.976;8.240;2022-11-03T01:06:30;12.40;;;5.50;;
803;SDS011;25687;49.976;8.240;2022-11-03T01:14:27;13.10;;;5.40;;
803;SDS011;25687;49.976;8.240;2022-11-03T01:16:55;16.50;;;5.50;;
803;SDS011;25687;49.976;8.240;2022-11-03T01:19:20;11.70;;;5.37;;
803;SDS011;25687;49.976;8.240;2022-11-03T01:21:46;12.63;;;5.43;;
803;SDS011;25687;49.976;8.240;2022-11-03T01:24:11;14.93;;;5.77;;
803;SDS011;25687;49.976;8.240;2022-11-03T01:26:36;10.80;;;5.33;;
803;SDS011;25687;49.976;8.240;2022-11-03T01:29:01;12.90;;;6.10;;
803;SDS011;25687;49.976;8.240;2022-11-03T01:31:27;11.13;;;5.93;;
803;SDS011;25687;49.976;8.240;2022-11-03T01:33:53;20.70;;;5.97;;
803;SDS011;25687;49.976;8.240;2022-11-03T01:36:20;17.83;;;6.03;;
803;SDS011;25687;49.976;8.240;2022-11-03T01:38:46;13.47;;;5.50;;
803;SDS011;25687;49.976;8.240;2022-11-03T01:41:14;17.77;;;5.60;;
803;SDS011;25687;49.976;8.240;2022-11-03T01:44:30;12.03;;;5.87;;
803;SDS011;25687;49.976;8.240;2022-11-03T01:46:43;17.13;;;5.93;;
803;SDS011;25687;49.976;8.240;2022-11-03T01:49:19;12.07;;;5.80;;
803;SDS011;25687;49.976;8.240;2022-11-03T01:51:53;13.17;;;5.77;;
803;SDS011;25687;49.976;8.240;2022-11-03T01:54:23;12.23;;;5.93;;
803;SDS011;25687;49.976;8.240;2022-11-03T01:56:52;13.00;;;5.70;;
803;SDS011;25687;49.976;8.240;2022-11-03T01:59:19;16.23;;;5.77;;
803;SDS011;25687;49.976;8.240;2022-11-03T02:01:48;11.63;;;5.43;;
803;SDS011;25687;49.976;8.240;2022-11-03T02:04:16;11.23;;;5.50;;
803;SDS011;25687;49.976;8.240;2022-11-03T02:06:47;10.93;;;5.20;;
803;SDS011;25687;49.976;8.240;2022-11-03T02:09:19;14.53;;;6.00;;
803;SDS011;25687;49.976;8.240;2022-11-03T02:11:44;14.47;;;5.67;;
803;SDS011;25687;49.976;8.240;2022-11-03T02:14:28;16.33;;;5.73;;
803;SDS011;25687;49.976;8.240;2022-11-03T02:16:54;12.13;;;5.67;;
803;SDS011;25687;49.976;8.240;2022-11-03T02:24:50;13.57;;;5.30;;
803;SDS011;25687;49.976;8.240;2022-11-03T02:27:39;13.30;;;5.17;;
803;SDS011;25687;49.976;8.240;2022-11-03T02:30:05;11.10;;;5.70;;
803;SDS011;25687;49.976;8.240;2022-11-03T02:32:32;17.33;;;6.87;;
803;SDS011;25687;49.976;8.240;2022-11-03T02:35:20;13.47;;;5.93;;
803;SDS011;25687;49.976;8.240;2022-11-03T02:37:53;12.77;;;6.33;;
803;SDS011;25687;49.976;8.240;2022-11-03T02:40:26;12.83;;;5.33;;
803;SDS011;25687;49.976;8.240;2022-11-03T02:42:54;17.13;;;6.03;;
803;SDS011;25687;49.976;8.240;2022-11-03T02:45:21;14.27;;;5.97;;
803;SDS011;25687;49.976;8.240;2022-11-03T02:47:49;9.20;;;5.43;;
803;SDS011;25687;49.976;8.240;2022-11-03T02:50:18;14.43;;;6.07;;
803;SDS011;25687;49.976;8.240;2022-11-03T02:52:46;11.67;;;6.33;;
803;SDS011;25687;49.976;8.240;2022-11-03T03:00:58;10.67;;;5.47;;
803;SDS011;25687;49.976;8.240;2022-11-03T03:03:31;14.93;;;5.73;;
803;SDS011;25687;49.976;8.240;2022-11-03T03:06:04;14.47;;;6.00;;
803;SDS011;25687;49.976;8.240;2022-11-03T03:08:36;13.33;;;6.37;;
803;SDS011;25687;49.976;8.240;2022-11-03T03:11:05;10.20;;;5.20;;
803;SDS011;25687;49.976;8.240;2022-11-03T03:13:35;13.07;;;6.10;;
803;SDS011;25687;49.976;8.240;2022-11-03T03:18:37;15.83;;;6.20;;
803;SDS011;25687;49.976;8.240;2022-11-03T03:21:22;15.57;;;6.00;;
803;SDS011;25687;49.976;8.240;2022-11-03T03:23:58;20.40;;;5.87;;
803;SDS011;25687;49.976;8.240;2022-11-03T03:26:29;19.33;;;6.70;;
803;SDS011;25687;49.976;8.240;2022-11-03T03:28:59;16.87;;;6.33;;
803;SDS011;25687;49.976;8.240;2022-11-03T03:31:31;14.30;;;5.53;;
803;SDS011;25687;49.976;8.240;2022-11-03T03:34:01;14.40;;;5.83;;
803;SDS011;25687;49.976;8.240;2022-11-03T03:36:28;14.17;;;6.07;;
803;SDS011;25687;49.976;8.240;2022-11-03T03:38:57;11.50;;;5.80;;
803;SDS011;25687;49.976;8.240;2022-11-03T03:41:26;9.70;;;6.63;;
803;SDS011;25687;49.976;8.240;2022-11-03T03:43:57;18.60;;;6.63;;
803;SDS011;25687;49.976;8.240;2022-11-03T03:46:30;14.37;;;6.23;;
803;SDS011;25687;49.976;8.240;2022-11-03T03:48:58;15.77;;;6.30;;
803;SDS011;25687;49.976;8.240;2022-11-03T03:51:24;14.07;;;6.77;;
803;SDS011;25687;49.976;8.240;2022-11-03T03:53:52;12.47;;;6.57;;
803;SDS011;25687;49.976;8.240;2022-11-03T03:56:20;10.93;;;5.97;;
803;SDS011;25687;49.976;8.240;2022-11-03T03:58:52;16.30;;;7.00;;
803;SDS011;25687;49.976;8.240;2022-11-03T04:01:17;15.87;;;5.73;;
803;SDS011;25687;49.976;8.240;2022-11-03T04:03:42;13.73;;;6.67;;
803;SDS011;25687;49.976;8.240;2022-11-03T04:06:08;9.70;;;5.83;;
803;SDS011;25687;49.976;8.240;2022-11-03T04:08:34;12.93;;;6.47;;
803;SDS011;25687;49.976;8.240;2022-11-03T04:10:59;15.57;;;6.70;;
803;SDS011;25687;49.976;8.240;2022-11-03T04:13:42;12.57;;;6.23;;
803;SDS011;25687;49.976;8.240;2022-11-03T04:16:26;12.83;;;6.33;;
803;SDS011;25687;49.976;8.240;2022-11-03T04:19:10;10.73;;;5.97;;
803;SDS011;25687;49.976;8.240;2022-11-03T04:21:54;19.87;;;6.87;;
803;SDS011;25687;49.976;8.240;2022-11-03T04:24:38;12.60;;;5.60;;
803;SDS011;25687;49.976;8.240;2022-11-03T04:29:47;13.83;;;5.60;;
803;SDS011;25687;49.976;8.240;2022-11-03T04:32:13;10.33;;;6.13;;
803;SDS011;25687;49.976;8.240;2022-11-03T04:34:41;19.70;;;5.67;;
803;SDS011;25687;49.976;8.240;2022-11-03T04:37:12;12.93;;;5.67;;
803;SDS011;25687;49.976;8.240;2022-11-03T04:39:38;12.60;;;5.87;;
803;SDS011;25687;49.976;8.240;2022-11-03T04:42:18;13.37;;;6.33;;
803;SDS011;25687;49.976;8.240;2022-11-03T04:44:48;15.40;;;6.60;;
803;SDS011;25687;49.976;8.240;2022-11-03T04:47:14;10.67;;;6.37;;
803;SDS011;25687;49.976;8.240;2022-11-03T04:49:41;9.07;;;5.90;;
803;SDS011;25687;49.976;8.240;2022-11-03T04:52:09;12.57;;;5.83;;
803;SDS011;25687;49.976;8.240;2022-11-03T04:54:43;13.37;;;5.93;;
803;SDS011;25687;49.976;8.240;2022-11-03T04:57:10;14.90;;;6.60;;
803;SDS011;25687;49.976;8.240;2022-11-03T04:59:41;16.90;;;7.23;;
803;SDS011;25687;49.976;8.240;2022-11-03T05:02:11;14.83;;;6.50;;
803;SDS011;25687;49.976;8.240;2022-11-03T05:04:38;13.03;;;6.30;;
803;SDS011;25687;49.976;8.240;2022-11-03T05:07:10;16.13;;;7.00;;
803;SDS011;25687;49.976;8.240;2022-11-03T05:09:46;13.80;;;7.63;;
803;SDS011;25687;49.976;8.240;2022-11-03T05:12:11;12.73;;;6.77;;
803;SDS011;25687;49.976;8.240;2022-11-03T05:14:37;13.83;;;6.60;;
803;SDS011;25687;49.976;8.240;2022-11-03T05:17:04;10.17;;;6.93;;
803;SDS011;25687;49.976;8.240;2022-11-03T05:19:39;10.27;;;6.73;;
803;SDS011;25687;49.976;8.240;2022-11-03T05:22:11;11.40;;;7.30;;
803;SDS011;25687;49.976;8.240;2022-11-03T05:24:41;12.63;;;6.90;;
803;SDS011;25687;49.976;8.240;2022-11-03T05:27:08;16.13;;;7.10;;
803;SDS011;25687;49.976;8.240;2022-11-03T05:29:40;13.30;;;6.63;;
803;SDS011;25687;49.976;8.240;2022-11-03T05:32:16;12.53;;;7.30;;
803;SDS011;25687;49.976;8.240;2022-11-03T05:34:46;14.63;;;6.83;;
803;SDS011;25687;49.976;8.240;2022-11-03T05:37:32;13.77;;;7.30;;
803;SDS011;25687;49.976;8.240;2022-11-03T05:42:33;22.93;;;8.40;;
803;SDS011;25687;49.976;8.240;2022-11-03T05:45:07;16.60;;;7.67;;
803;SDS011;25687;49.976;8.240;2022-11-03T05:47:39;14.60;;;7.60;;
803;SDS011;25687;49.976;8.240;2022-11-03T05:50:26;17.57;;;7.30;;
803;SDS011;25687;49.976;8.240;2022-11-03T05:53:20;14.23;;;7.53;;
803;SDS011;25687;49.976;8.240;2022-11-03T05:55:42;14.97;;;7.07;;
803;SDS011;25687;49.976;8.240;2022-11-03T05:58:13;16.47;;;7.27;;
803;SDS011;25687;49.976;8.240;2022-11-03T06:00:51;11.33;;;7.30;;
803;SDS011;25687;49.976;8.240;2022-11-03T06:03:21;20.27;;;8.10;;
803;SDS011;25687;49.976;8.240;2022-11-03T06:05:49;13.40;;;7.43;;
803;SDS011;25687;49.976;8.240;2022-11-03T06:08:17;15.00;;;8.33;;
803;SDS011;25687;49.976;8.240;2022-11-03T06:10:49;17.33;;;7.67;;
803;SDS011;25687;49.976;8.240;2022-11-03T06:13:19;12.43;;;7.43;;
803;SDS011;25687;49.976;8.240;2022-11-03T06:15:50;15.43;;;7.33;;
803;SDS011;25687;49.976;8.240;2022-11-03T06:18:22;12.83;;;7.70;;
803;SDS011;25687;49.976;8.240;2022-11-03T06:20:54;20.40;;;7.77;;
803;SDS011;25687;49.976;8.240;2022-11-03T06:23:22;13.77;;;7.30;;
803;SDS011;25687;49.976;8.240;2022-11-03T06:25:49;17.27;;;8.03;;
803;SDS011;25687;49.976;8.240;2022-11-03T06:30:58;15.37;;;7.20;;
803;SDS011;25687;49.976;8.240;2022-11-03T06:33:25;19.87;;;8.50;;
803;SDS011;25687;49.976;8.240;2022-11-03T06:35:58;17.63;;;9.07;;
803;SDS011;25687;49.976;8.240;2022-11-03T06:38:27;15.03;;;8.00;;
803;SDS011;25687;49.976;8.240;2022-11-03T06:40:54;14.90;;;7.40;;
803;SDS011;25687;49.976;8.240;2022-11-03T06:43:24;16.00;;;7.90;;
803;SDS011;25687;49.976;8.240;2022-11-03T06:45:56;16.77;;;9.20;;
803;SDS011;25687;49.976;8.240;2022-11-03T06:48:24;16.87;;;9.70;;
803;SDS011;25687;49.976;8.240;2022-11-03T06:50:51;23.43;;;8.33;;
803;SDS011;25687;49.976;8.240;2022-11-03T06:53:24;16.33;;;8.30;;
803;SDS011;25687;49.976;8.240;2022-11-03T06:55:53;16.30;;;8.10;;
803;SDS011;25687;49.976;8.240;2022-11-03T06:58:30;16.80;;;9.13;;
803;SDS011;25687;49.976;8.240;2022-11-03T07:01:00;21.13;;;9.50;;
803;SDS011;25687;49.976;8.240;2022-11-03T07:03:28;21.87;;;8.33;;
803;SDS011;25687;49.976;8.240;2022-11-03T07:05:57;22.47;;;9.97;;
803;SDS011;25687;49.976;8.240;2022-11-03T07:08:30;13.57;;;8.67;;
803;SDS011;25687;49.976;8.240;2022-11-03T07:11:02;18.30;;;9.07;;
803;SDS011;25687;49.976;8.240;2022-11-03T07:13:34;24.73;;;9.40;;
803;SDS011;25687;49.976;8.240;2022-11-03T07:16:00;13.47;;;8.67;;
803;SDS011;25687;49.976;8.240;2022-11-03T07:18:33;20.33;;;9.07;;
803;SDS011;25687;49.976;8.240;2022-11-03T07:21:15;14.53;;;8.03;;
803;SDS011;25687;49.976;8.240;2022-11-03T07:23:55;17.10;;;9.07;;
803;SDS011;25687;49.976;8.240;2022-11-03T07:26:24;20.07;;;8.10;;
803;SDS011;25687;49.976;8.240;2022-11-03T07:28:50;16.37;;;8.23;;
803;SDS011;25687;49.976;8.240;2022-11-03T07:31:18;19.80;;;9.00;;
803;SDS011;25687;49.976;8.240;2022-11-03T07:33:46;13.40;;;8.13;;
803;SDS011;25687;49.976;8.240;2022-11-03T07:36:14;18.53;;;7.60;;
803;SDS011;25687;49.976;8.240;2022-11-03T07:38:47;19.20;;;8.17;;
803;SDS011;25687;49.976;8.240;2022-11-03T07:41:17;16.97;;;8.57;;
803;SDS011;25687;49.976;8.240;2022-11-03T07:43:46;19.80;;;7.77;;
803;SDS011;25687;49.976;8.240;2022-11-03T07:46:18;17.07;;;7.50;;
803;SDS011;25687;49.976;8.240;2022-11-03T07:48:45;15.07;;;8.23;;
803;SDS011;25687;49.976;8.240;2022-11-03T07:51:33;19.53;;;8.10;;
803;SDS011;25687;49.976;8.240;2022-11-03T07:56:35;18.63;;;8.70;;
803;SDS011;25687;49.976;8.240;2022-11-03T08:01:36;22.40;;;8.07;;
803;SDS011;25687;49.976;8.240;2022-11-03T08:04:06;21.77;;;7.40;;
803;SDS011;25687;49.976;8.240;2022-11-03T08:06:37;21.97;;;7.17;;
803;SDS011;25687;49.976;8.240;2022-11-03T08:09:02;25.80;;;7.90;;
803;SDS011;25687;49.976;8.240;2022-11-03T08:11:28;19.37;;;7.63;;
803;SDS011;25687;49.976;8.240;2022-11-03T08:13:54;24.73;;;7.70;;
803;SDS011;25687;49.976;8.240;2022-11-03T08:16:19;17.37;;;7.40;;
803;SDS011;25687;49.976;8.240;2022-11-03T08:18:45;17.53;;;7.43;;
803;SDS011;25687;49.976;8.240;2022-11-03T08:21:10;17.97;;;7.17;;
803;SDS011;25687;49.976;8.240;2022-11-03T08:23:37;23.67;;;8.07;;
803;SDS011;25687;49.976;8.240;2022-11-03T08:26:02;21.93;;;7.77;;
803;SDS011;25687;49.976;8.240;2022-11-03T08:28:28;23.97;;;8.17;;
803;SDS011;25687;49.976;8.240;2022-11-03T08:30:53;24.73;;;8.07;;
803;SDS011;25687;49.976;8.240;2022-11-03T08:33:19;21.93;;;7.73;;
803;SDS011;25687;49.976;8.240;2022-11-03T08:35:44;17.23;;;8.13;;
803;SDS011;25687;49.976;8.240;2022-11-03T08:38:09;21.30;;;8.03;;
803;SDS011;25687;49.976;8.240;2022-11-03T08:40:35;14.57;;;7.90;;
803;SDS011;25687;49.976;8.240;2022-11-03T08:43:00;18.87;;;8.43;;
803;SDS011;25687;49.976;8.240;2022-11-03T08:45:27;18.43;;;9.40;;
803;SDS011;25687;49.976;8.240;2022-11-03T08:47:53;19.87;;;8.60;;
803;SDS011;25687;49.976;8.240;2022-11-03T08:50:19;12.73;;;7.50;;
803;SDS011;25687;49.976;8.240;2022-11-03T08:52:45;16.63;;;7.50;;
803;SDS011;25687;49.976;8.240;2022-11-03T08:55:10;11.97;;;6.17;;
803;SDS011;25687;49.976;8.240;2022-11-03T08:57:35;13.07;;;6.00;;
803;SDS011;25687;49.976;8.240;2022-11-03T09:00:01;11.57;;;5.60;;
803;SDS011;25687;49.976;8.240;2022-11-03T09:02:27;12.33;;;4.83;;
803;SDS011;25687;49.976;8.240;2022-11-03T09:04:52;12.77;;;5.80;;
803;SDS011;25687;49.976;8.240;2022-11-03T09:07:18;9.87;;;5.30;;
803;SDS011;25687;49.976;8.240;2022-11-03T09:09:43;8.00;;;5.07;;
803;SDS011;25687;49.976;8.240;2022-11-03T09:12:08;8.33;;;5.07;;
803;SDS011;25687;49.976;8.240;2022-11-03T09:14:33;13.77;;;6.17;;
803;SDS011;25687;49.976;8.240;2022-11-03T09:16:59;10.80;;;5.67;;
803;SDS011;25687;49.976;8.240;2022-11-03T09:19:24;9.93;;;6.20;;
803;SDS011;25687;49.976;8.240;2022-11-03T09:21:49;15.37;;;5.77;;
803;SDS011;25687;49.976;8.240;2022-11-03T09:24:16;10.83;;;6.30;;
803;SDS011;25687;49.976;8.240;2022-11-03T09:26:41;12.97;;;6.40;;
803;SDS011;25687;49.976;8.240;2022-11-03T09:29:06;11.83;;;6.13;;
803;SDS011;25687;49.976;8.240;2022-11-03T09:31:31;11.20;;;5.70;;
803;SDS011;25687;49.976;8.240;2022-11-03T09:33:57;14.33;;;5.50;;
803;SDS011;25687;49.976;8.240;2022-11-03T09:36:22;12.80;;;5.40;;
803;SDS011;25687;49.976;8.240;2022-11-03T09:38:47;9.27;;;5.67;;
803;SDS011;25687;49.976;8.240;2022-11-03T09:41:13;12.03;;;5.60;;
803;SDS011;25687;49.976;8.240;2022-11-03T09:43:42;14.17;;;5.60;;
803;SDS011;25687;49.976;8.240;2022-11-03T09:46:08;11.40;;;6.07;;
803;SDS011;25687;49.976;8.240;2022-11-03T09:48:34;16.80;;;6.27;;
803;SDS011;25687;49.976;8.240;2022-11-03T09:50:59;13.73;;;6.47;;
803;SDS011;25687;49.976;8.240;2022-11-03T09:53:25;7.73;;;5.47;;
803;SDS011;25687;49.976;8.240;2022-11-03T09:55:50;11.50;;;6.00;;
803;SDS011;25687;49.976;8.240;2022-11-03T09:58:16;11.67;;;5.43;;
803;SDS011;25687;49.976;8.240;2022-11-03T10:00:42;12.10;;;6.17;;
803;SDS011;25687;49.976;8.240;2022-11-03T10:03:11;15.67;;;6.63;;
803;SDS011;25687;49.976;8.240;2022-11-03T10:05:39;15.63;;;6.70;;
803;SDS011;25687;49.976;8.240;2022-11-03T10:08:10;11.63;;;6.47;;
803;SDS011;25687;49.976;8.240;2022-11-03T10:10:44;11.87;;;6.30;;
803;SDS011;25687;49.976;8.240;2022-11-03T10:13:10;9.67;;;6.83;;
803;SDS011;25687;49.976;8.240;2022-11-03T10:15:46;13.60;;;6.97;;
803;SDS011;25687;49.976;8.240;2022-11-03T10:18:11;12.33;;;6.93;;
803;SDS011;25687;49.976;8.240;2022-11-03T10:20:37;15.07;;;7.57;;
803;SDS011;25687;49.976;8.240;2022-11-03T10:23:02;17.07;;;7.37;;
803;SDS011;25687;49.976;8.240;2022-11-03T10:25:29;13.03;;;6.87;;
803;SDS011;25687;49.976;8.240;2022-11-03T10:28:15;11.37;;;6.23;;
803;SDS011;25687;49.976;8.240;2022-11-03T10:30:46;15.67;;;6.00;;
803;SDS011;25687;49.976;8.240;2022-11-03T10:33:36;11.10;;;5.30;;
803;SDS011;25687;49.976;8.240;2022-11-03T10:38:39;9.60;;;6.07;;
803;SDS011;25687;49.976;8.240;2022-11-03T10:41:11;11.80;;;6.43;;
803;SDS011;25687;49.976;8.240;2022-11-03T10:43:38;10.17;;;6.03;;
803;SDS011;25687;49.976;8.240;2022-11-03T10:48:53;11.10;;;7.13;;
803;SDS011;25687;49.976;8.240;2022-11-03T10:51:26;10.10;;;6.67;;
803;SDS011;25687;49.976;8.240;2022-11-03T10:53:53;13.53;;;7.20;;
803;SDS011;25687;49.976;8.240;2022-11-03T10:56:18;12.17;;;7.90;;
803;SDS011;25687;49.976;8.240;2022-11-03T10:58:43;11.70;;;7.27;;
803;SDS011;25687;49.976;8.240;2022-11-03T11:01:09;17.90;;;8.77;;
803;SDS011;25687;49.976;8.240;2022-11-03T11:03:35;11.83;;;7.00;;
803;SDS011;25687;49.976;8.240;2022-11-03T11:06:17;13.33;;;7.90;;
803;SDS011;25687;49.976;8.240;2022-11-03T11:08:43;15.43;;;7.57;;
803;SDS011;25687;49.976;8.240;2022-11-03T11:11:08;12.67;;;7.00;;
803;SDS011;25687;49.976;8.240;2022-11-03T11:13:42;10.70;;;6.87;;
803;SDS011;25687;49.976;8.240;2022-11-03T11:19:12;11.47;;;6.27;;
803;SDS011;25687;49.976;8.240;2022-11-03T11:24:03;11.67;;;7.30;;
803;SDS011;25687;49.976;8.240;2022-11-03T11:26:29;12.33;;;7.03;;
803;SDS011;25687;49.976;8.240;2022-11-03T11:31:32;19.07;;;6.97;;
803;SDS011;25687;49.976;8.240;2022-11-03T11:36:32;10.23;;;6.13;;
803;SDS011;25687;49.976;8.240;2022-11-03T11:38:58;11.87;;;6.20;;
803;SDS011;25687;49.976;8.240;2022-11-03T11:47:20;11.77;;;6.13;;
803;SDS011;25687;49.976;8.240;2022-11-03T11:50:33;10.50;;;7.27;;
803;SDS011;25687;49.976;8.240;2022-11-03T11:52:56;16.20;;;7.77;;
803;SDS011;25687;49.976;8.240;2022-11-03T11:55:35;11.30;;;6.53;;
803;SDS011;25687;49.976;8.240;2022-11-03T12:04:21;14.90;;;7.93;;
803;SDS011;25687;49.976;8.240;2022-11-03T12:06:50;11.40;;;8.67;;
803;SDS011;25687;49.976;8.240;2022-11-03T12:09:17;15.43;;;6.70;;
803;SDS011;25687;49.976;8.240;2022-11-03T12:11:45;12.50;;;6.53;;
803;SDS011;25687;49.976;8.240;2022-11-03T12:14:23;11.03;;;6.10;;
803;SDS011;25687;49.976;8.240;2022-11-03T12:17:29;10.77;;;5.93;;
803;SDS011;25687;49.976;8.240;2022-11-03T12:19:45;13.57;;;6.60;;
803;SDS011;25687;49.976;8.240;2022-11-03T12:24:56;14.47;;;7.07;;
803;SDS011;25687;49.976;8.240;2022-11-03T12:29:53;9.30;;;6.10;;
803;SDS011;25687;49.976;8.240;2022-11-03T12:32:21;14.77;;;6.83;;
803;SDS011;25687;49.976;8.240;2022-11-03T12:34:46;10.80;;;6.40;;
803;SDS011;25687;49.976;8.240;2022-11-03T12:37:12;15.47;;;7.23;;
803;SDS011;25687;49.976;8.240;2022-11-03T12:39:37;14.60;;;6.77;;
803;SDS011;25687;49.976;8.240;2022-11-03T12:42:03;10.83;;;5.90;;
803;SDS011;25687;49.976;8.240;2022-11-03T12:44:29;11.27;;;7.20;;
803;SDS011;25687;49.976;8.240;2022-11-03T12:46:54;14.70;;;6.57;;
803;SDS011;25687;49.976;8.240;2022-11-03T12:49:20;11.87;;;6.93;;
803;SDS011;25687;49.976;8.240;2022-11-03T12:51:45;12.90;;;6.83;;
803;SDS011;25687;49.976;8.240;2022-11-03T12:54:10;14.17;;;7.23;;
803;SDS011;25687;49.976;8.240;2022-11-03T12:56:36;11.60;;;6.17;;
803;SDS011;25687;49.976;8.240;2022-11-03T12:59:01;9.53;;;6.83;;
803;SDS011;25687;49.976;8.240;2022-11-03T13:01:26;12.80;;;6.37;;
803;SDS011;25687;49.976;8.240;2022-11-03T13:03:51;9.27;;;5.60;;
803;SDS011;25687;49.976;8.240;2022-11-03T13:06:17;11.87;;;6.00;;
803;SDS011;25687;49.976;8.240;2022-11-03T13:08:42;12.77;;;6.47;;
803;SDS011;25687;49.976;8.240;2022-11-03T13:11:08;10.10;;;6.60;;
803;SDS011;25687;49.976;8.240;2022-11-03T13:13:53;13.17;;;6.63;;
803;SDS011;25687;49.976;8.240;2022-11-03T13:16:19;10.17;;;7.10;;
803;SDS011;25687;49.976;8.240;2022-11-03T13:18:45;11.27;;;7.47;;
803;SDS011;25687;49.976;8.240;2022-11-03T13:21:11;11.07;;;6.80;;
803;SDS011;25687;49.976;8.240;2022-11-03T13:23:37;10.43;;;6.60;;
803;SDS011;25687;49.976;8.240;2022-11-03T13:26:03;13.80;;;7.30;;
803;SDS011;25687;49.976;8.240;2022-11-03T13:28:28;12.80;;;6.73;;
803;SDS011;25687;49.976;8.240;2022-11-03T13:30:53;12.73;;;6.87;;
803;SDS011;25687;49.976;8.240;2022-11-03T13:33:18;13.67;;;6.47;;
803;SDS011;25687;49.976;8.240;2022-11-03T13:35:44;11.70;;;6.83;;
803;SDS011;25687;49.976;8.240;2022-11-03T13:38:09;9.00;;;6.20;;
803;SDS011;25687;49.976;8.240;2022-11-03T13:40:34;9.97;;;6.43;;
803;SDS011;25687;49.976;8.240;2022-11-03T13:43:00;16.43;;;7.13;;
803;SDS011;25687;49.976;8.240;2022-11-03T13:45:25;12.50;;;6.43;;
803;SDS011;25687;49.976;8.240;2022-11-03T13:47:52;24.03;;;7.53;;
803;SDS011;25687;49.976;8.240;2022-11-03T13:50:17;15.57;;;7.40;;
803;SDS011;25687;49.976;8.240;2022-11-03T13:52:43;12.93;;;7.00;;
803;SDS011;25687;49.976;8.240;2022-11-03T13:55:09;13.13;;;7.40;;
803;SDS011;25687;49.976;8.240;2022-11-03T13:57:35;13.33;;;7.27;;
803;SDS011;25687;49.976;8.240;2022-11-03T14:00:01;14.63;;;6.67;;
803;SDS011;25687;49.976;8.240;2022-11-03T14:02:31;12.80;;;7.13;;
803;SDS011;25687;49.976;8.240;2022-11-03T14:04:56;12.57;;;7.37;;
803;SDS011;25687;49.976;8.240;2022-11-03T14:07:22;11.70;;;6.53;;
803;SDS011;25687;49.976;8.240;2022-11-03T14:09:47;15.50;;;6.57;;
803;SDS011;25687;49.976;8.240;2022-11-03T14:12:12;14.33;;;6.33;;
803;SDS011;25687;49.976;8.240;2022-11-03T14:14:59;13.83;;;6.40;;
803;SDS011;25687;49.976;8.240;2022-11-03T14:17:26;13.20;;;6.00;;
803;SDS011;25687;49.976;8.240;2022-11-03T14:19:52;18.37;;;9.67;;
803;SDS011;25687;49.976;8.240;2022-11-03T14:22:18;11.93;;;5.90;;
803;SDS011;25687;49.976;8.240;2022-11-03T14:24:44;14.67;;;6.47;;
803;SDS011;25687;49.976;8.240;2022-11-03T14:27:09;16.23;;;7.10;;
803;SDS011;25687;49.976;8.240;2022-11-03T14:29:34;13.63;;;6.13;;
803;SDS011;25687;49.976;8.240;2022-11-03T14:32:00;12.73;;;6.67;;
803;SDS011;25687;49.976;8.240;2022-11-03T14:34:25;14.93;;;6.57;;
803;SDS011;25687;49.976;8.240;2022-11-03T14:36:51;11.57;;;6.73;;
803;SDS011;25687;49.976;8.240;2022-11-03T14:39:16;13.63;;;7.30;;
803;SDS011;25687;49.976;8.240;2022-11-03T14:41:41;12.90;;;6.97;;
803;SDS011;25687;49.976;8.240;2022-11-03T14:44:25;12.43;;;8.13;;
803;SDS011;25687;49.976;8.240;2022-11-03T14:46:50;17.77;;;7.37;;
803;SDS011;25687;49.976;8.240;2022-11-03T14:49:16;12.07;;;6.87;;
803;SDS011;25687;49.976;8.240;2022-11-03T14:51:41;13.50;;;6.20;;
803;SDS011;25687;49.976;8.240;2022-11-03T14:54:07;11.97;;;6.63;;
803;SDS011;25687;49.976;8.240;2022-11-03T14:56:32;14.63;;;5.23;;
803;SDS011;25687;49.976;8.240;2022-11-03T14:58:57;17.93;;;6.67;;
803;SDS011;25687;49.976;8.240;2022-11-03T15:01:22;15.93;;;4.93;;
803;SDS011;25687;49.976;8.240;2022-11-03T15:03:48;8.50;;;4.33;;
803;SDS011;25687;49.976;8.240;2022-11-03T15:06:13;11.50;;;5.30;;
803;SDS011;25687;49.976;8.240;2022-11-03T15:08:38;13.70;;;5.70;;
803;SDS011;25687;49.976;8.240;2022-11-03T15:11:04;10.77;;;4.57;;
803;SDS011;25687;49.976;8.240;2022-11-03T15:13:32;9.87;;;4.70;;
803;SDS011;25687;49.976;8.240;2022-11-03T15:15:58;12.13;;;5.10;;
803;SDS011;25687;49.976;8.240;2022-11-03T15:18:23;5.77;;;4.07;;
803;SDS011;25687;49.976;8.240;2022-11-03T15:20:48;10.60;;;4.57;;
803;SDS011;25687;49.976;8.240;2022-11-03T15:23:13;11.37;;;4.63;;
803;SDS011;25687;49.976;8.240;2022-11-03T15:25:39;8.70;;;4.60;;
803;SDS011;25687;49.976;8.240;2022-11-03T15:28:04;14.47;;;5.27;;
803;SDS011;25687;49.976;8.240;2022-11-03T15:30:30;10.47;;;4.93;;
803;SDS011;25687;49.976;8.240;2022-11-03T15:32:57;13.07;;;4.70;;
803;SDS011;25687;49.976;8.240;2022-11-03T15:35:22;8.73;;;5.07;;
803;SDS011;25687;49.976;8.240;2022-11-03T15:37:48;9.47;;;5.17;;
803;SDS011;25687;49.976;8.240;2022-11-03T15:40:15;9.20;;;4.80;;
803;SDS011;25687;49.976;8.240;2022-11-03T15:42:41;11.00;;;4.67;;
803;SDS011;25687;49.976;8.240;2022-11-03T15:45:07;9.43;;;5.07;;
803;SDS011;25687;49.976;8.240;2022-11-03T15:47:35;13.10;;;5.17;;
803;SDS011;25687;49.976;8.240;2022-11-03T15:50:00;10.73;;;4.70;;
803;SDS011;25687;49.976;8.240;2022-11-03T15:52:26;15.80;;;4.37;;
803;SDS011;25687;49.976;8.240;2022-11-03T15:54:51;7.97;;;4.87;;
803;SDS011;25687;49.976;8.240;2022-11-03T15:57:16;11.63;;;4.90;;
803;SDS011;25687;49.976;8.240;2022-11-03T15:59:42;10.43;;;5.00;;
803;SDS011;25687;49.976;8.240;2022-11-03T16:02:07;8.43;;;4.90;;
803;SDS011;25687;49.976;8.240;2022-11-03T16:04:33;15.17;;;5.73;;
803;SDS011;25687;49.976;8.240;2022-11-03T16:06:59;10.27;;;4.90;;
803;SDS011;25687;49.976;8.240;2022-11-03T16:09:24;10.80;;;5.50;;
803;SDS011;25687;49.976;8.240;2022-11-03T16:11:49;7.00;;;4.80;;
803;SDS011;25687;49.976;8.240;2022-11-03T16:14:14;13.10;;;5.63;;
803;SDS011;25687;49.976;8.240;2022-11-03T16:16:40;8.97;;;5.37;;
803;SDS011;25687;49.976;8.240;2022-11-03T16:19:05;10.60;;;6.73;;
803;SDS011;25687;49.976;8.240;2022-11-03T16:21:30;12.00;;;6.03;;